Time;durP1;ratioP1;P1;durP2;ratioP2;P2;SDS_P1;SDS_P2;PMS_P1;PMS_P2;Temp;Humidity;BMP_temperature;BMP_pressure;BME280_temperature;BME280_humidity;BME280_pressure;Samples;Min_cycle;Max_cycle;Signal;HPM_P1;HPM_P2
2023/05/11 07:01:20;;;;;;;1.03;1.03;;;13.90;99.90;16.90;101237.00;;;;6127342;23;1391450;-64
2023/05/11 07:03:52;;;;;;;0.73;0.73;;;13.80;99.90;16.50;101242.00;;;;6187675;23;20161;-64
2023/05/11 07:06:51;;;;;;;0.67;0.67;;;14.10;99.90;16.70;101243.00;;;;6187391;23;20194;-66
2023/05/11 07:09:25;;;;;;;0.73;0.53;;;13.80;99.90;18.50;101254.00;;;;6187283;23;20148;-65
2023/05/11 07:12:20;;;;;;;0.50;0.50;;;14.50;99.90;19.20;101266.00;;;;6187379;23;20254;-65
2023/05/11 07:15:09;;;;;;;1.17;1.17;;;15.20;99.90;17.80;101284.00;;;;6174555;23;20192;-65
2023/05/11 07:18:14;;;;;;;0.50;0.50;;;15.20;99.90;17.70;101266.00;;;;6185538;23;20157;-65
2023/05/11 07:21:08;;;;;;;0.47;0.40;;;14.70;99.90;19.60;101295.00;;;;6187162;23;20156;-64
2023/05/11 07:24:06;;;;;;;1.20;1.20;;;15.40;99.90;17.40;101280.00;;;;6186940;23;20156;-64
2023/05/11 07:26:32;;;;;;;0.70;0.70;;;15.30;99.90;17.90;101285.00;;;;6183368;23;20214;-64
2023/05/11 07:29:17;;;;;;;0.20;0.20;;;15.00;99.90;17.90;101280.00;;;;6178773;23;20147;-64
2023/05/11 07:31:47;;;;;;;3.13;2.27;;;14.80;99.90;17.40;101266.00;;;;6178739;23;20193;-64
2023/05/11 07:34:35;;;;;;;0.10;0.10;;;14.50;99.90;17.30;101269.00;;;;6185295;23;20474;-64
2023/05/11 07:37:07;;;;;;;0.20;0.20;;;14.20;99.90;18.50;101292.00;;;;6163072;23;20195;-64
2023/05/11 07:39:35;;;;;;;0.60;0.60;;;14.60;99.90;18.50;101303.00;;;;6185470;23;20166;-64
2023/05/11 07:42:09;;;;;;;0.20;0.20;;;14.90;99.90;19.50;101309.00;;;;6186657;23;20193;-64
2023/05/11 07:44:35;;;;;;;0.20;0.20;;;15.30;99.90;19.30;101306.00;;;;6186600;23;20143;-64
2023/05/11 07:47:01;;;;;;;0.20;0.20;;;15.50;99.90;18.90;101313.00;;;;6187268;23;20146;-64
2023/05/11 07:49:49;;;;;;;0.57;0.57;;;15.70;99.90;18.30;101306.00;;;;6185748;23;20146;-64
2023/05/11 07:52:57;;;;;;;0.20;0.20;;;15.40;99.90;19.00;101310.00;;;;6161725;23;20201;-64
2023/05/11 07:55:45;;;;;;;2.77;1.70;;;15.40;99.90;18.80;101310.00;;;;6184809;23;20162;-64
2023/05/11 07:58:36;;;;;;;0.83;0.83;;;15.30;99.90;17.00;101269.00;;;;6185568;23;20162;-70
2023/05/11 08:01:05;;;;;;;1.03;1.00;;;14.90;99.90;17.50;101304.00;;;;6139684;23;20540;-64
2023/05/11 08:03:34;;;;;;;1.80;1.70;;;14.90;99.90;17.20;101296.00;;;;6184549;23;20197;-63
2023/05/11 08:06:25;;;;;;;7.30;2.63;;;14.50;99.90;17.70;101288.00;;;;6160023;23;20158;-64
2023/05/11 08:09:21;;;;;;;0.60;0.60;;;14.50;99.90;17.10;101288.00;;;;6186369;23;20142;-64
2023/05/11 08:11:55;;;;;;;1.37;1.27;;;14.50;99.90;17.40;101282.00;;;;6184329;23;20668;-65
2023/05/11 08:14:51;;;;;;;1.00;0.97;;;14.70;99.90;18.20;101291.00;;;;6184236;23;20145;-65
2023/05/11 08:20:49;;;;;;;0.10;0.10;;;15.40;99.90;20.80;101341.00;;;;6185285;23;20163;-66
2023/05/11 08:23:21;;;;;;;0.20;0.20;;;16.60;99.90;21.40;101359.00;;;;6173723;23;20175;-69
2023/05/11 08:26:15;;;;;;;0.10;0.10;;;17.40;99.90;21.70;101336.00;;;;6159894;23;20180;-68
2023/05/11 08:28:41;;;;;;;0.30;0.30;;;17.60;99.90;22.30;101313.00;;;;6185309;23;20161;-72
2023/05/11 08:31:07;;;;;;;4.63;1.63;;;18.10;99.90;20.40;101366.00;;;;6185388;23;20588;-70
2023/05/11 08:33:40;;;;;;;0.10;0.10;;;17.70;99.90;18.80;101318.00;;;;6186409;23;20227;-72
2023/05/11 08:36:12;;;;;;;1.03;1.03;;;16.70;99.90;19.50;101273.00;;;;6186550;23;20144;-71
2023/05/11 08:38:45;;;;;;;0.20;0.20;;;16.60;99.90;20.30;101323.00;;;;6161146;23;20577;-65
2023/05/11 08:41:24;;;;;;;0.63;0.63;;;16.60;99.90;20.40;101333.00;;;;6183341;23;20490;-62
2023/05/11 08:44:19;;;;;;;0.10;0.10;;;16.90;99.90;20.20;101352.00;;;;6183679;23;20166;-65
2023/05/11 08:47:05;;;;;;;0.57;0.57;;;16.80;99.90;20.40;101349.00;;;;6185116;23;20193;-62
2023/05/11 08:50:12;;;;;;;0.93;0.93;;;16.80;99.90;18.80;101328.00;;;;6185242;23;20627;-61
2023/05/11 08:53:04;;;;;;;2.07;1.60;;;16.20;99.90;20.10;101342.00;;;;6181373;23;20186;-66
2023/05/11 08:55:57;;;;;;;0.30;0.30;;;16.50;99.90;20.80;101343.00;;;;6184778;23;20447;-66
2023/05/11 08:59:10;;;;;;;0.10;0.10;;;16.90;99.90;22.50;101365.00;;;;6064009;23;20165;-66
2023/05/11 09:02:20;;;;;;;0.20;0.20;;;18.00;99.90;23.90;101408.00;;;;6065515;23;20627;-63
2023/05/11 09:05:35;;;;;;;0.77;0.77;;;19.10;99.90;22.80;101434.00;;;;6041225;23;20477;-65
2023/05/11 09:08:28;;;;;;;0.90;0.80;;;19.30;99.90;19.20;101368.00;;;;6046228;23;20739;-65
2023/05/11 09:11:13;;;;;;;0.10;0.10;;;17.30;99.90;20.50;101351.00;;;;5952733;24;20199;-67
2023/05/11 09:14:22;;;;;;;0.30;0.30;;;17.00;99.90;19.90;101342.00;;;;6041844;23;20217;-68
2023/05/11 09:20:18;;;;;;;0.10;0.10;;;17.50;99.90;21.20;101387.00;;;;6044079;23;20164;-67
2023/05/11 09:23:02;;;;;;;3.50;3.20;;;17.80;99.90;20.80;101294.00;;;;6064280;23;20264;-66
2023/05/11 09:26:20;;;;;;;3.93;3.70;;;17.50;99.90;21.30;101366.00;;;;6042125;23;20236;-63
2023/05/11 09:29:06;;;;;;;0.53;0.50;;;17.70;99.90;22.20;101320.00;;;;6064615;23;20173;-69
2023/05/11 09:32:11;;;;;;;0.40;0.40;;;18.20;99.90;22.90;101415.00;;;;6064050;23;20156;-70
2023/05/11 09:35:31;;;;;;;0.10;0.10;;;18.70;99.90;23.00;101429.00;;;;6087634;23;20248;-66
2023/05/11 09:38:37;;;;;;;1.63;1.53;;;18.80;99.90;20.50;101424.00;;;;6168983;23;20213;-69
2023/05/11 09:41:40;;;;;;;0.10;0.10;;;18.20;99.90;20.60;101346.00;;;;6184176;23;20591;-69
2023/05/11 09:45:12;;;;;;;0.10;0.10;;;17.10;99.90;21.60;101375.00;;;;6183886;23;20162;-67
2023/05/11 09:48:26;;;;;;;2.53;2.33;;;17.60;99.90;20.80;101373.00;;;;6183070;23;20200;-67
2023/05/11 09:54:54;;;;;;;2.13;1.93;;;18.00;99.90;20.20;101369.00;;;;6185298;23;20598;-78
2023/05/11 09:58:04;;;;;;;1.40;1.30;;;17.50;99.90;21.10;101366.00;;;;6184128;23;20156;-75
2023/05/11 10:01:14;;;;;;;2.20;2.00;;;17.50;99.90;20.30;101362.00;;;;6158584;23;20179;-69
2023/05/11 10:04:42;;;;;;;0.20;0.20;;;17.50;99.90;21.80;101370.00;;;;6157816;23;20485;-74
2023/05/11 10:07:33;;;;;;;0.10;0.10;;;17.70;99.90;23.30;101401.00;;;;6164119;23;20166;-67
2023/05/11 10:10:07;;;;;;;0.30;0.30;;;18.90;99.90;23.60;101426.00;;;;6164152;23;20167;-63
2023/05/11 10:12:56;;;;;;;0.50;0.50;;;19.60;99.90;24.60;101442.00;;;;6183150;23;20170;-65
2023/05/11 10:15:50;;;;;;;0.82;0.82;;;20.40;99.90;24.60;101460.00;;;;6184340;23;20170;-63
2023/05/11 10:18:43;;;;;;;0.63;0.63;;;20.90;99.90;23.00;101469.00;;;;6159014;23;20159;-63
2023/05/11 10:33:49;;;;;;;0.22;0.22;;;20.30;99.90;25.70;101401.00;;;;5070344;28;20597;-63
2023/05/11 10:36:48;;;;;;;0.10;0.10;;;22.10;99.90;26.30;101423.00;;;;5047783;28;20197;-63
2023/05/11 10:39:48;;;;;;;4.72;2.92;;;22.70;99.90;22.00;101489.00;;;;5048122;28;20644;-63
2023/05/11 10:42:57;;;;;;;2.95;2.75;;;21.30;99.90;25.50;101444.00;;;;5049543;28;20598;-71
2023/05/11 10:45:31;;;;;;;1.48;1.48;;;21.40;99.90;27.80;101413.00;;;;5049868;28;20190;-70
2023/05/11 10:48:42;;;;;;;0.30;0.30;;;23.20;99.90;27.30;101403.00;;;;5049075;28;20549;-70
2023/05/11 10:51:17;;;;;;;0.30;0.30;;;23.50;99.90;27.40;101411.00;;;;5042001;28;20182;-70
2023/05/11 10:54:13;;;;;;;0.80;0.50;;;23.30;99.90;26.40;101413.00;;;;5049626;28;20204;-70
2023/05/11 10:56:59;;;;;;;1.55;1.35;;;23.00;99.90;28.40;101374.00;;;;5049918;28;20187;-71
2023/05/11 11:00:30;;;;;;;0.10;0.10;;;23.90;99.90;28.10;101368.00;;;;5050306;28;20583;-72
2023/05/11 11:03:36;;;;;;;0.35;0.35;;;23.90;99.90;28.30;101377.00;;;;5046126;28;20192;-70
2023/05/11 11:06:21;;;;;;;4.93;3.75;;;24.80;99.90;27.50;101394.00;;;;5076214;28;20228;-69
2023/05/11 11:09:12;;;;;;;3.22;2.63;;;24.00;99.90;26.60;101407.00;;;;5038092;28;20190;-69
2023/05/11 11:11:49;;;;;;;1.98;1.48;;;23.10;99.90;26.70;101406.00;;;;5040841;28;20675;-68
2023/05/11 11:14:18;;;;;;;0.30;0.30;;;22.80;99.90;26.00;101363.00;;;;5044574;28;20578;-62
2023/05/11 11:17:15;;;;;;;0.30;0.30;;;22.60;99.90;26.00;101419.00;;;;5049733;28;20186;-61
2023/05/11 11:19:43;;;;;;;3.92;3.55;;;22.00;99.90;25.10;101382.00;;;;5043440;28;20186;-61
2023/05/11 11:22:37;;;;;;;0.20;0.20;;;21.80;99.90;23.80;101463.00;;;;5049264;28;20194;-61
2023/05/11 11:25:09;;;;;;;2.22;2.10;;;20.50;99.90;22.40;101482.00;;;;5046161;28;20224;-61
2023/05/11 11:27:51;;;;;;;6.78;4.88;;;19.70;99.90;21.40;101463.00;;;;5035584;28;20285;-61
2023/05/11 11:30:29;;;;;;;0.93;0.93;;;18.60;99.90;21.90;101443.00;;;;5048824;28;20186;-61
2023/05/11 11:33:18;;;;;;;1.85;1.73;;;18.50;99.90;22.00;101424.00;;;;5049112;28;20226;-61
2023/05/11 11:36:01;;;;;;;1.73;1.63;;;18.30;99.90;23.40;101444.00;;;;5044522;28;20272;-61
2023/05/11 11:38:58;;;;;;;6.10;3.25;;;19.20;99.90;23.20;101409.00;;;;5063243;28;20209;-61
2023/05/11 11:41:32;;;;;;;4.07;3.83;;;19.70;99.90;23.70;101459.00;;;;5046946;28;20183;-61
2023/05/11 11:44:39;;;;;;;2.35;2.17;;;19.90;99.90;23.30;101462.00;;;;5039829;28;20187;-61
2023/05/11 11:47:17;;;;;;;1.20;1.10;;;19.70;99.90;22.90;101444.00;;;;5032330;28;20199;-61
2023/05/11 11:50:12;;;;;;;0.30;0.30;;;19.30;99.90;22.50;101448.00;;;;5016678;28;20553;-61
2023/05/11 11:53:38;;;;;;;3.07;2.90;;;19.10;99.90;22.50;101459.00;;;;5037344;28;20687;-61
2023/05/11 11:56:24;;;;;;;2.00;1.53;;;18.90;99.90;21.70;101407.00;;;;5033131;28;20660;-61
2023/05/11 12:02:26;;;;;;;1.23;1.20;;;18.50;99.90;22.90;101447.00;;;;5035163;28;20237;-62
2023/05/11 12:05:18;;;;;;;3.37;3.07;;;18.90;99.90;22.40;101432.00;;;;5032162;28;20186;-61
2023/05/11 12:08:22;;;;;;;0.10;0.10;;;18.90;99.90;23.00;101389.00;;;;5031330;28;20527;-67
2023/05/11 12:11:37;;;;;;;0.50;0.50;;;19.00;99.90;22.10;101390.00;;;;5032560;28;20260;-66
2023/05/11 12:15:02;;;;;;;0.10;0.10;;;18.90;99.90;22.30;101374.00;;;;5033037;28;20563;-66
2023/05/11 12:17:37;;;;;;;0.40;0.40;;;18.60;99.90;22.90;101392.00;;;;5007102;28;20195;-67
2023/05/11 12:20:18;;;;;;;0.20;0.20;;;18.80;99.90;22.30;101391.00;;;;5033533;28;20280;-68
2023/05/11 12:22:48;;;;;;;1.07;1.07;;;18.70;99.90;22.00;101406.00;;;;5033541;28;20206;-71
2023/05/11 12:25:19;;;;;;;0.10;0.10;;;18.70;99.90;22.10;101336.00;;;;5024635;28;20196;-71
2023/05/11 12:28:00;;;;;;;0.57;0.57;;;18.40;99.90;22.60;101402.00;;;;5033635;28;20186;-71
2023/05/11 12:30:37;;;;;;;0.57;0.57;;;18.60;99.90;23.20;101409.00;;;;5018170;28;20183;-70
2023/05/11 12:33:47;;;;;;;0.20;0.20;;;18.90;99.90;22.50;101405.00;;;;5033808;28;20303;-75
2023/05/11 12:36:41;;;;;;;0.93;0.73;;;18.90;99.90;22.70;101320.00;;;;5033326;28;20191;-73
2023/05/11 12:39:07;;;;;;;4.20;1.23;;;19.00;99.90;23.60;101391.00;;;;5028876;28;20191;-72
2023/05/11 12:42:14;;;;;;;0.10;0.10;;;19.40;99.90;24.10;101420.00;;;;5023038;28;20198;-75
2023/05/11 12:44:40;;;;;;;1.05;1.05;;;19.80;99.90;24.10;101436.00;;;;5019466;28;20256;-69
2023/05/11 12:47:19;;;;;;;0.10;0.10;;;19.90;99.90;24.30;101432.00;;;;5033009;28;20191;-69
2023/05/11 12:49:45;;;;;;;0.10;0.10;;;20.10;99.90;23.70;101382.00;;;;5041763;28;20285;-71
2023/05/11 12:52:12;;;;;;;0.90;0.52;;;19.90;99.90;23.80;101381.00;;;;5033037;28;20540;-69
2023/05/11 12:55:26;;;;;;;1.27;1.27;;;20.00;99.90;24.30;101433.00;;;;5039389;28;20248;-75
2023/05/11 12:58:10;;;;;;;0.10;0.10;;;20.00;99.90;24.30;101424.00;;;;5008786;28;20179;-69
2023/05/11 13:00:45;;;;;;;0.10;0.10;;;20.10;99.90;24.10;101444.00;;;;5062604;28;20266;-68
2023/05/11 13:03:11;;;;;;;0.10;0.10;;;20.20;99.90;24.60;101440.00;;;;5035109;28;20307;-66
2023/05/11 13:09:23;;;;;;;1.42;1.33;;;20.60;99.90;23.00;101453.00;;;;5034596;28;20277;-66
2023/05/11 13:12:12;;;;;;;0.10;0.10;;;20.30;99.90;24.30;101444.00;;;;5008974;28;20187;-67
2023/05/11 13:15:06;;;;;;;0.75;0.75;;;20.10;99.90;24.90;101440.00;;;;5031453;28;20523;-67
2023/05/11 13:17:37;;;;;;;0.20;0.20;;;20.60;99.90;24.80;101383.00;;;;5032399;28;20664;-67
2023/05/11 13:20:32;;;;;;;0.60;0.60;;;20.70;99.90;22.70;101465.00;;;;5039408;28;20186;-66
2023/05/11 13:23:23;;;;;;;1.27;0.95;;;20.00;99.90;22.30;101430.00;;;;5029461;28;20262;-66
2023/05/11 13:26:35;;;;;;;0.32;0.32;;;19.30;99.90;22.30;101411.00;;;;5030491;28;20213;-66
2023/05/11 13:29:04;;;;;;;3.88;1.63;;;19.00;99.90;21.10;101395.00;;;;5038181;28;20191;-66
2023/05/11 13:31:47;;;;;;;0.20;0.20;;;18.60;99.90;22.50;101368.00;;;;5033601;28;20211;-66
2023/05/11 13:34:14;;;;;;;0.10;0.10;;;18.70;99.90;23.10;101370.00;;;;5039272;28;20245;-66
2023/05/11 13:37:06;;;;;;;2.00;1.48;;;19.10;99.90;23.80;101388.00;;;;5015895;28;20190;-67
2023/05/11 13:39:34;;;;;;;0.13;0.13;;;19.60;99.90;23.70;101392.00;;;;5036093;28;20197;-67
2023/05/11 13:42:00;;;;;;;0.17;0.17;;;19.80;99.90;23.90;101404.00;;;;5033443;28;20274;-68
2023/05/11 13:44:26;;;;;;;0.10;0.10;;;20.00;99.90;23.20;101397.00;;;;5020504;28;20274;-68
2023/05/11 13:46:52;;;;;;;1.20;1.13;;;19.90;99.90;22.30;101336.00;;;;5032988;28;20214;-68
2023/05/11 13:49:39;;;;;;;0.10;0.10;;;19.50;99.90;23.50;101378.00;;;;5033001;28;20190;-68
2023/05/11 13:52:05;;;;;;;0.10;0.10;;;19.50;99.90;23.60;101401.00;;;;5031504;28;20229;-67
2023/05/11 13:54:31;;;;;;;0.10;0.10;;;19.80;99.90;24.10;101404.00;;;;5032056;28;20237;-67
2023/05/11 13:57:00;;;;;;;2.13;2.03;;;19.90;99.90;23.90;101414.00;;;;5033216;28;20532;-67
2023/05/11 13:59:32;;;;;;;0.25;0.25;;;20.10;99.90;22.50;101420.00;;;;5033271;28;20593;-67
2023/05/11 14:02:20;;;;;;;0.10;0.10;;;19.60;99.90;23.90;101415.00;;;;5033180;28;20190;-67
2023/05/11 14:04:46;;;;;;;0.10;0.10;;;19.70;99.90;24.40;101406.00;;;;5042116;28;20771;-68
2023/05/11 14:07:17;;;;;;;0.10;0.10;;;20.10;99.90;24.70;101404.00;;;;5031821;28;20201;-68
2023/05/11 14:10:09;;;;;;;0.13;0.13;;;20.30;99.90;24.40;101400.00;;;;5010924;28;20287;-68
2023/05/11 14:13:13;;;;;;;0.10;0.10;;;20.40;99.90;24.20;101434.00;;;;5030524;28;20203;-68
2023/05/11 14:15:41;;;;;;;0.10;0.10;;;20.20;99.90;24.20;101427.00;;;;5033141;28;20228;-67
2023/05/11 14:18:07;;;;;;;0.83;0.83;;;20.20;99.90;22.40;101460.00;;;;5032085;28;20244;-68
2023/05/11 14:20:56;;;;;;;0.20;0.20;;;19.60;99.90;23.00;101451.00;;;;5018873;28;20177;-67
2023/05/11 14:23:30;;;;;;;0.30;0.30;;;19.30;99.90;22.10;101463.00;;;;5027163;28;20205;-67
2023/05/11 14:25:58;;;;;;;0.60;0.52;;;19.30;99.90;22.50;101449.00;;;;5030999;28;20205;-67
2023/05/11 14:28:47;;;;;;;0.10;0.10;;;19.10;99.90;22.20;101439.00;;;;5031123;28;20264;-67
2023/05/11 14:31:30;;;;;;;0.40;0.40;;;18.90;99.90;23.10;101425.00;;;;5046942;28;20238;-67
2023/05/11 14:34:14;;;;;;;0.17;0.17;;;19.20;99.90;23.90;101434.00;;;;5031561;28;20233;-67
2023/05/11 14:36:52;;;;;;;0.37;0.30;;;19.60;99.90;23.60;101422.00;;;;5026440;28;20201;-67
2023/05/11 14:39:41;;;;;;;0.10;0.10;;;19.70;99.90;22.90;101422.00;;;;5030804;28;20201;-67
2023/05/11 14:42:13;;;;;;;0.10;0.10;;;19.40;99.90;23.70;101425.00;;;;5022429;28;20267;-67
2023/05/11 14:44:40;;;;;;;0.85;0.47;;;19.60;99.90;23.70;101430.00;;;;5014065;28;20590;-67
2023/05/11 14:47:07;;;;;;;0.28;0.28;;;19.70;99.90;22.70;101437.00;;;;5032431;28;20279;-67
2023/05/11 14:49:33;;;;;;;0.10;0.10;;;19.50;99.90;23.80;101424.00;;;;5031972;28;20201;-67
2023/05/11 14:52:09;;;;;;;0.10;0.10;;;19.60;99.90;24.20;101368.00;;;;5032145;28;20297;-67
2023/05/11 14:54:35;;;;;;;0.10;0.10;;;19.80;99.90;23.60;101434.00;;;;5030687;28;20183;-67
2023/05/11 14:57:19;;;;;;;0.10;0.10;;;19.80;99.90;23.60;101442.00;;;;5014257;28;20282;-67
2023/05/11 15:00:07;;;;;;;0.10;0.10;;;19.80;99.90;24.40;101433.00;;;;5058120;28;20247;-67
2023/05/11 15:02:58;;;;;;;0.10;0.10;;;19.90;99.90;24.30;101440.00;;;;5059789;28;20247;-67
2023/05/11 15:05:46;;;;;;;0.10;0.10;;;20.10;99.90;23.70;101435.00;;;;5031166;28;20236;-67
2023/05/11 15:08:49;;;;;;;0.10;0.10;;;20.00;99.90;24.30;101427.00;;;;5013603;28;20195;-67
2023/05/11 15:11:24;;;;;;;0.28;0.28;;;20.00;99.90;24.50;101436.00;;;;5027016;28;20193;-67
2023/05/11 15:14:27;;;;;;;0.10;0.10;;;20.10;99.90;24.10;101374.00;;;;5031436;28;20204;-67
2023/05/11 15:17:28;;;;;;;0.47;0.47;;;20.00;99.90;24.00;101437.00;;;;5023235;28;20191;-67
2023/05/11 15:20:03;;;;;;;0.10;0.10;;;20.20;99.90;24.50;101414.00;;;;5027306;28;20507;-67
2023/05/11 15:23:05;;;;;;;0.10;0.10;;;20.10;99.90;24.00;101434.00;;;;5034413;28;20187;-67
2023/05/11 15:25:59;;;;;;;0.10;0.10;;;20.10;99.90;24.70;101376.00;;;;5018485;28;20591;-67
2023/05/11 15:28:48;;;;;;;0.20;0.20;;;20.30;99.90;24.10;101430.00;;;;5014033;28;20596;-67
2023/05/11 15:31:23;;;;;;;0.10;0.10;;;20.20;99.90;23.90;101448.00;;;;5025689;28;20214;-67
2023/05/11 15:33:52;;;;;;;0.10;0.10;;;20.20;99.90;24.50;101445.00;;;;5039274;28;20183;-67
2023/05/11 15:36:29;;;;;;;0.35;0.35;;;20.30;99.90;24.00;101434.00;;;;5034145;28;20191;-68
2023/05/11 15:39:04;;;;;;;0.30;0.30;;;20.30;99.90;22.30;101380.00;;;;5034688;28;20192;-67
2023/05/11 15:42:05;;;;;;;0.25;0.25;;;19.80;99.90;22.80;101437.00;;;;5033662;28;20240;-68
2023/05/11 15:45:14;;;;;;;0.83;0.83;;;19.20;99.90;21.90;101408.00;;;;5032739;28;20190;-68
2023/05/11 15:47:40;;;;;;;0.20;0.20;;;18.80;99.90;21.70;101360.00;;;;5015562;28;20271;-68
2023/05/11 15:50:14;;;;;;;0.10;0.10;;;18.50;99.90;20.70;101339.00;;;;5017340;28;20240;-65
2023/05/11 15:53:04;;;;;;;0.20;0.20;;;18.10;99.90;21.60;101259.00;;;;5034105;28;20230;-68
2023/05/11 15:55:33;;;;;;;3.20;1.20;;;18.10;99.90;21.10;101339.00;;;;5018085;28;20579;-67
2023/05/11 15:58:07;;;;;;;0.23;0.23;;;18.00;99.90;21.20;101323.00;;;;5034680;28;20647;-70
2023/05/11 16:00:36;;;;;;;0.37;0.37;;;17.90;99.90;21.60;101325.00;;;;5034348;28;20201;-67
2023/05/11 16:03:19;;;;;;;0.30;0.30;;;18.00;99.90;20.70;101320.00;;;;5033863;28;20285;-68
2023/05/11 16:06:09;;;;;;;0.37;0.30;;;17.70;99.90;21.20;101323.00;;;;5034009;28;20195;-68
2023/05/11 16:08:48;;;;;;;0.10;0.10;;;17.70;99.90;21.50;101273.00;;;;5028061;28;20275;-67
2023/05/11 16:11:59;;;;;;;0.10;0.10;;;17.80;99.90;21.30;101333.00;;;;5023738;28;20668;-67
2023/05/11 16:14:45;;;;;;;0.17;0.17;;;17.90;99.90;22.40;101358.00;;;;5028750;28;20193;-68
2023/05/11 16:17:29;;;;;;;0.50;0.50;;;18.20;99.90;22.20;101344.00;;;;5019466;28;20196;-68
2023/05/11 16:19:59;;;;;;;0.10;0.10;;;18.30;99.90;22.20;101352.00;;;;5016540;28;20192;-67
2023/05/11 16:22:29;;;;;;;0.10;0.10;;;18.40;99.90;21.90;101356.00;;;;5033908;28;20210;-68
2023/05/11 16:24:56;;;;;;;0.53;0.53;;;18.30;99.90;21.90;101325.00;;;;5033706;28;20244;-68
2023/05/11 16:28:05;;;;;;;0.10;0.10;;;18.30;99.90;22.40;101351.00;;;;5032862;28;20186;-69
2023/05/11 16:31:23;;;;;;;0.10;0.10;;;18.30;99.90;22.40;101359.00;;;;5030051;28;20208;-68
2023/05/11 16:33:56;;;;;;;0.10;0.10;;;18.50;99.90;21.90;101362.00;;;;5028943;28;20212;-63
2023/05/11 16:36:48;;;;;;;0.10;0.10;;;18.40;99.90;21.20;101330.00;;;;5034793;28;20198;-68
2023/05/11 16:39:40;;;;;;;1.20;0.53;;;18.00;99.90;21.20;101324.00;;;;5016869;28;20222;-68
2023/05/11 16:42:18;;;;;;;0.20;0.20;;;17.80;99.90;21.60;101333.00;;;;5033449;28;20193;-68
2023/05/11 16:45:03;;;;;;;0.20;0.20;;;17.80;99.90;21.20;101336.00;;;;5026514;28;20191;-68
2023/05/11 16:47:52;;;;;;;0.23;0.23;;;17.60;99.90;20.90;101327.00;;;;5032045;28;20593;-68
2023/05/11 16:50:23;;;;;;;0.20;0.20;;;17.50;99.90;21.20;101333.00;;;;5034419;28;20250;-69
2023/05/11 16:52:49;;;;;;;0.10;0.10;;;17.30;99.90;21.80;101350.00;;;;5034229;28;20634;-69
2023/05/11 16:55:38;;;;;;;0.20;0.20;;;17.60;99.90;21.20;101338.00;;;;5032206;28;20211;-68
2023/05/11 16:58:13;;;;;;;0.20;0.20;;;17.50;99.90;21.40;101282.00;;;;5006698;28;20546;-69
2023/05/11 17:01:08;;;;;;;0.20;0.20;;;17.50;99.90;20.80;101326.00;;;;5032564;28;20181;-68
2023/05/11 17:03:46;;;;;;;0.20;0.20;;;17.40;99.90;20.90;101351.00;;;;5012335;28;20202;-69
2023/05/11 17:06:23;;;;;;;0.20;0.20;;;17.30;99.90;20.90;101365.00;;;;5009277;28;20183;-69
2023/05/11 17:09:12;;;;;;;0.40;0.40;;;17.20;99.90;21.30;101344.00;;;;5026149;28;20196;-69
2023/05/11 17:11:43;;;;;;;0.20;0.20;;;17.30;99.90;21.60;101342.00;;;;5032997;28;20253;-69
2023/05/11 17:14:26;;;;;;;0.20;0.20;;;17.60;99.90;21.00;101347.00;;;;5034065;28;20265;-69
2023/05/11 17:16:57;;;;;;;0.20;0.20;;;17.50;99.90;21.70;101347.00;;;;5027906;28;20176;-69
2023/05/11 17:19:40;;;;;;;0.10;0.10;;;17.60;99.90;22.10;101368.00;;;;5032122;28;20215;-69
2023/05/11 17:22:41;;;;;;;0.20;0.20;;;18.10;99.90;22.30;101304.00;;;;5032204;28;20654;-69
2023/05/11 17:25:34;;;;;;;0.20;0.20;;;18.20;99.90;22.50;101364.00;;;;5026256;28;20183;-69
2023/05/11 17:28:00;;;;;;;0.10;0.10;;;18.40;99.90;22.50;101363.00;;;;5032220;28;20603;-69
2023/05/11 17:30:26;;;;;;;0.20;0.20;;;18.50;99.90;22.50;101306.00;;;;5030817;28;20182;-69
2023/05/11 17:32:52;;;;;;;0.10;0.10;;;18.60;99.90;21.60;101347.00;;;;5031906;28;20631;-69
2023/05/11 17:35:21;;;;;;;0.77;0.77;;;18.30;99.90;21.90;101363.00;;;;5032725;28;20652;-69
2023/05/11 17:37:49;;;;;;;0.20;0.20;;;18.20;99.90;22.20;101370.00;;;;5033739;28;20265;-69
2023/05/11 17:40:15;;;;;;;0.10;0.10;;;18.30;99.90;22.20;101377.00;;;;5015296;28;20205;-69
2023/05/11 17:42:44;;;;;;;0.57;0.57;;;18.50;99.90;21.00;101372.00;;;;5033066;28;20550;-69
2023/05/11 17:45:10;;;;;;;0.10;0.10;;;18.10;99.90;21.90;101344.00;;;;5032496;28;20187;-69
2023/05/11 17:48:03;;;;;;;0.10;0.10;;;18.00;99.90;21.70;101372.00;;;;5031841;28;20774;-69
2023/05/11 17:50:31;;;;;;;0.10;0.10;;;18.30;99.90;21.90;101363.00;;;;5027025;28;20598;-69
2023/05/11 17:52:57;;;;;;;0.50;0.50;;;18.30;99.90;21.10;101356.00;;;;5016048;28;20290;-67
2023/05/11 17:55:23;;;;;;;1.13;0.57;;;18.20;99.90;21.50;101358.00;;;;5032158;28;20279;-67
2023/05/11 17:57:52;;;;;;;0.27;0.27;;;18.20;99.90;21.80;101370.00;;;;5032325;28;20211;-67
2023/05/11 18:00:19;;;;;;;0.20;0.20;;;18.20;99.90;21.60;101367.00;;;;5031864;28;20184;-67
2023/05/11 18:02:48;;;;;;;0.60;0.60;;;18.20;99.90;21.30;101350.00;;;;5031837;28;20196;-67
2023/05/11 18:05:17;;;;;;;22.67;1.43;;;17.90;99.90;21.80;101367.00;;;;5033133;28;20190;-67
2023/05/11 18:07:48;;;;;;;0.10;0.10;;;18.10;99.90;21.00;101352.00;;;;5033464;28;20194;-67
2023/05/11 18:10:16;;;;;;;0.47;0.47;;;18.10;99.90;21.80;101301.00;;;;5044648;28;20249;-67
2023/05/11 18:12:42;;;;;;;1.70;0.70;;;18.10;99.90;21.80;101359.00;;;;5033136;28;20228;-67
2023/05/11 18:15:58;;;;;;;0.20;0.20;;;18.10;99.90;22.00;101376.00;;;;5025127;28;20180;-67
2023/05/11 18:18:29;;;;;;;0.57;0.30;;;18.30;99.90;21.50;101377.00;;;;5032214;28;20243;-67
2023/05/11 18:21:20;;;;;;;0.10;0.10;;;18.20;99.90;21.30;101373.00;;;;5020154;28;20241;-67
2023/05/11 18:23:46;;;;;;;0.10;0.10;;;18.00;99.90;21.70;101372.00;;;;5023160;28;20533;-67
2023/05/11 18:26:13;;;;;;;0.30;0.30;;;18.00;99.90;21.30;101350.00;;;;5064358;28;20325;-68
2023/05/11 18:28:41;;;;;;;0.10;0.10;;;17.90;99.90;21.30;101380.00;;;;5031568;28;20211;-68
2023/05/11 18:31:07;;;;;;;0.23;0.23;;;18.00;99.90;21.30;101385.00;;;;5029944;28;20183;-67
2023/05/11 18:33:38;;;;;;;0.37;0.37;;;17.90;99.90;21.30;101386.00;;;;5031445;28;20689;-68
2023/05/11 18:36:39;;;;;;;1.90;0.97;;;18.00;99.90;21.50;101383.00;;;;5031619;28;20186;-67
2023/05/11 18:39:40;;;;;;;0.50;0.50;;;18.00;99.90;21.80;101391.00;;;;5025260;28;20180;-67
2023/05/11 18:42:17;;;;;;;0.20;0.20;;;18.00;99.90;21.90;101387.00;;;;5013374;28;20270;-67
2023/05/11 18:44:52;;;;;;;1.13;0.70;;;18.20;99.90;21.60;101377.00;;;;5013784;28;20207;-68
2023/05/11 18:48:03;;;;;;;0.77;0.77;;;18.10;99.90;21.10;101363.00;;;;5016271;28;20190;-67
2023/05/11 18:50:54;;;;;;;0.10;0.10;;;17.70;99.90;21.70;101379.00;;;;5032607;28;20195;-65
2023/05/11 18:53:57;;;;;;;0.20;0.20;;;18.00;99.90;21.50;101385.00;;;;5015677;28;20202;-65
2023/05/11 18:56:58;;;;;;;0.20;0.20;;;18.10;99.90;21.50;101388.00;;;;5037573;28;20200;-64
2023/05/11 19:00:20;;;;;;;0.20;0.20;;;17.80;99.90;21.20;101389.00;;;;5023378;28;20194;-64
2023/05/11 19:03:09;;;;;;;0.10;0.10;;;17.70;99.90;20.90;101317.00;;;;5034968;28;20212;-65
2023/05/11 19:05:52;;;;;;;1.00;0.83;;;17.40;99.90;19.60;101372.00;;;;5033688;28;20271;-63
2023/05/11 19:08:56;;;;;;;0.10;0.10;;;17.30;99.90;20.90;101378.00;;;;5032695;28;20547;-63
2023/05/11 19:11:57;;;;;;;0.20;0.20;;;17.20;99.90;20.50;101376.00;;;;5049365;28;20273;-63
2023/05/11 19:14:54;;;;;;;0.20;0.20;;;17.20;99.90;20.50;101387.00;;;;5027726;28;20264;-63
2023/05/11 19:18:04;;;;;;;2.10;2.00;;;17.20;99.90;21.00;101397.00;;;;5028459;28;20229;-63
2023/05/11 19:20:52;;;;;;;0.63;0.63;;;17.20;99.90;21.50;101404.00;;;;5021928;28;20326;-64
2023/05/11 19:23:47;;;;;;;1.37;1.27;;;17.50;99.90;21.10;101324.00;;;;5018205;28;20201;-63
2023/05/11 19:26:33;;;;;;;2.50;2.23;;;17.60;99.90;20.30;101394.00;;;;5035703;28;20227;-63
2023/05/11 19:29:01;;;;;;;0.20;0.20;;;17.10;99.90;20.50;101400.00;;;;5035832;28;20224;-63
2023/05/11 19:32:21;;;;;;;0.30;0.30;;;17.10;99.90;21.10;101404.00;;;;5033791;28;20229;-63
2023/05/11 19:35:27;;;;;;;0.20;0.20;;;17.20;99.90;20.70;101410.00;;;;5030496;28;20191;-63